createdAt,value
2022-09-28T00:01:19.787Z,99150.59
2022-09-28T00:03:48.465Z,99140.09
2022-09-28T00:06:19.409Z,99143.25
2022-09-28T00:08:46.883Z,99148.22
2022-09-28T00:11:15.490Z,99145.56
2022-09-28T00:13:43.333Z,99134.19
2022-09-28T00:16:19.710Z,99135.19
2022-09-28T00:18:47.192Z,99141.31
2022-09-28T00:21:17.005Z,99145.78
2022-09-28T00:24:03.478Z,99138.84
2022-09-28T00:26:33.062Z,99133.91
2022-09-28T00:29:02.141Z,99141.31
2022-09-28T00:31:34.631Z,99129.06
2022-09-28T00:34:02.661Z,99138.13
2022-09-28T00:36:31.628Z,99134.84
2022-09-28T00:38:59.216Z,99128.53
2022-09-28T00:41:27.893Z,99128.53
2022-09-28T00:44:26.360Z,99125.06
2022-09-28T00:47:01.995Z,99122.41
2022-09-28T00:49:41.891Z,99129.00
2022-09-28T00:52:11.903Z,99131.63
2022-09-28T00:54:39.151Z,99124.53
2022-09-28T00:57:05.848Z,99120.22
2022-09-28T00:59:33.974Z,99121.16
2022-09-28T01:02:01.998Z,99123.63
2022-09-28T01:04:31.333Z,99115.50
2022-09-28T01:06:59.280Z,99114.69
2022-09-28T01:09:27.769Z,99109.84
2022-09-28T01:11:55.343Z,99113.03
2022-09-28T01:14:25.794Z,99106.09
2022-09-28T01:17:17.193Z,99104.63
2022-09-28T01:20:05.948Z,99101.97
2022-09-28T01:22:44.424Z,99094.56
2022-09-28T01:25:21.207Z,99099.56
2022-09-28T01:27:51.757Z,99103.88
2022-09-28T01:30:21.509Z,99102.84
2022-09-28T01:33:02.623Z,99106.34
2022-09-28T01:35:46.115Z,99102.22
2022-09-28T01:38:28.759Z,99092.53
2022-09-28T01:40:58.198Z,99103.88
2022-09-28T01:43:28.242Z,99107.69
2022-09-28T01:46:11.037Z,99095.19
2022-09-28T01:48:51.844Z,99080.84
2022-09-28T01:51:46.127Z,99092.91
2022-09-28T01:54:14.697Z,99088.97
2022-09-28T01:57:13.551Z,99099.66
2022-09-28T01:59:45.384Z,99089.41
2022-09-28T02:02:19.498Z,99090.88
2022-09-28T02:04:53.806Z,99082.84
2022-09-28T02:07:26.191Z,99084.94
2022-09-28T02:09:59.861Z,99083.31
2022-09-28T02:12:38.575Z,99093.53
2022-09-28T02:15:24.133Z,99089.88
2022-09-28T02:17:50.879Z,99089.41
2022-09-28T02:20:17.943Z,99080.19
2022-09-28T02:22:51.728Z,99081.72
2022-09-28T02:25:28.889Z,99082.34
2022-09-28T02:28:13.723Z,99084.69
2022-09-28T02:30:43.692Z,99080.47
2022-09-28T02:33:20.011Z,99082.75
2022-09-28T02:35:47.199Z,99086.13
2022-09-28T02:38:14.943Z,99094.34
2022-09-28T02:40:48.898Z,99085.94
2022-09-28T02:43:41.288Z,99091.34
2022-09-28T02:46:49.361Z,99079.28
2022-09-28T02:49:24.115Z,99087.88
2022-09-28T02:52:25.746Z,99087.22
2022-09-28T02:55:18.102Z,99095.00
2022-09-28T02:58:06.934Z,99096.00
2022-09-28T03:01:03.689Z,99080.84
2022-09-28T03:03:38.960Z,99085.31
2022-09-28T03:06:15.239Z,99092.06
2022-09-28T03:09:20.537Z,99084.59
2022-09-28T03:11:57.048Z,99088.41
2022-09-28T03:14:24.090Z,99078.88
2022-09-28T03:16:51.081Z,99082.94
2022-09-28T03:19:21.205Z,99082.94
2022-09-28T03:21:47.935Z,99078.53
2022-09-28T03:24:14.758Z,99075.75
2022-09-28T03:26:41.549Z,99088.78
2022-09-28T03:29:08.258Z,99087.41
2022-09-28T03:31:35.827Z,99091.06
2022-09-28T03:34:02.783Z,99091.06
2022-09-28T03:36:29.636Z,99082.00
2022-09-28T03:38:56.571Z,99092.06
2022-09-28T03:41:27.952Z,99078.81
2022-09-28T03:43:55.006Z,99086.94
2022-09-28T03:46:21.703Z,99097.00
2022-09-28T03:48:48.485Z,99097.63
2022-09-28T03:51:15.232Z,99097.91
2022-09-28T03:53:42.042Z,99084.81
2022-09-28T03:56:14.174Z,99091.09
2022-09-28T03:58:41.149Z,99092.00
2022-09-28T04:01:16.948Z,99092.72
2022-09-28T04:03:45.019Z,99097.00
2022-09-28T04:06:12.266Z,99090.59
2022-09-28T04:08:39.356Z,99080.69
2022-09-28T04:11:06.502Z,99089.13
2022-09-28T04:13:33.479Z,99082.31
2022-09-28T04:16:01.681Z,99082.94
2022-09-28T04:18:29.121Z,99081.69
2022-09-28T04:21:00.795Z,99085.63
2022-09-28T04:23:28.216Z,99083.00
2022-09-28T04:25:55.014Z,99084.66
2022-09-28T04:28:54.227Z,99095.53
2022-09-28T04:31:23.747Z,99092.53
2022-09-28T04:33:50.525Z,99089.88
2022-09-28T04:36:19.740Z,99101.59
2022-09-28T04:38:53.264Z,99097.28
2022-09-28T04:41:22.506Z,99103.69
2022-09-28T04:43:50.327Z,99097.47
2022-09-28T04:46:17.570Z,99093.53
2022-09-28T04:48:44.456Z,99095.19
2022-09-28T04:51:11.359Z,99104.06
2022-09-28T04:53:38.187Z,99090.28
2022-09-28T04:56:13.856Z,99081.78
2022-09-28T04:58:41.057Z,99103.59
2022-09-28T05:01:16.217Z,99102.06
2022-09-28T05:03:43.949Z,99110.31
2022-09-28T05:06:15.025Z,99104.84
2022-09-28T05:08:42.679Z,99104.66
2022-09-28T05:11:12.093Z,99103.53
2022-09-28T05:13:45.295Z,99107.06
2022-09-28T05:16:14.210Z,99105.22
2022-09-28T05:18:40.865Z,99101.75
2022-09-28T05:21:15.174Z,99086.81
2022-09-28T05:23:47.379Z,99104.94
2022-09-28T05:26:14.835Z,99107.13
2022-09-28T05:28:41.656Z,99103.75
2022-09-28T05:31:08.526Z,99104.41
2022-09-28T05:33:35.421Z,99099.47
2022-09-28T05:36:02.407Z,99102.66
2022-09-28T05:38:30.097Z,99090.94
2022-09-28T05:40:57.209Z,99102.00
2022-09-28T05:43:24.212Z,99104.13
2022-09-28T05:45:55.384Z,99099.19
2022-09-28T05:48:25.575Z,99097.53
2022-09-28T05:50:53.064Z,99098.88
2022-09-28T05:53:20.494Z,99108.47
2022-09-28T05:55:48.187Z,99105.84
2022-09-28T05:58:15.279Z,99103.66
2022-09-28T06:00:42.341Z,99096.94
2022-09-28T06:03:12.624Z,99107.47
2022-09-28T06:05:42.139Z,99107.81
2022-09-28T06:08:12.954Z,99109.81
2022-09-28T06:10:39.999Z,99119.06
2022-09-28T06:13:07.253Z,99111.78
2022-09-28T06:15:36.202Z,99119.72
2022-09-28T06:18:09.699Z,99116.25
2022-09-28T06:20:38.767Z,99116.25
2022-09-28T06:23:05.474Z,99118.88
2022-09-28T06:25:32.316Z,99123.00
2022-09-28T06:28:01.274Z,99125.19
2022-09-28T06:30:32.182Z,99133.59
2022-09-28T06:33:15.977Z,99129.66
2022-09-28T06:39:25.282Z,99138.94
2022-09-28T06:41:53.571Z,99143.72
2022-09-28T06:44:20.521Z,99142.56
2022-09-28T06:46:47.887Z,99150.50
2022-09-28T06:49:19.296Z,99151.00
2022-09-28T06:51:46.454Z,99157.66
2022-09-28T06:54:14.234Z,99148.50
2022-09-28T06:56:44.744Z,99141.31
2022-09-28T06:59:11.462Z,99137.78
2022-09-28T07:01:38.435Z,99145.22
2022-09-28T07:04:05.216Z,99152.16
2022-09-28T07:06:32.031Z,99155.28
2022-09-28T07:09:21.359Z,99151.16
2022-09-28T07:11:49.495Z,99161.59
2022-09-28T07:14:31.943Z,99166.97
2022-09-28T07:17:12.966Z,99162.28
2022-09-28T07:19:40.800Z,99166.75
2022-09-28T07:22:07.622Z,99164.63
2022-09-28T07:24:34.541Z,99167.09
2022-09-28T07:27:04.590Z,99172.63
2022-09-28T07:29:31.364Z,99161.75
2022-09-28T07:31:58.220Z,99174.94
2022-09-28T07:34:25.158Z,99166.34
2022-09-28T07:36:52.015Z,99177.84
2022-09-28T07:39:18.588Z,99172.34
2022-09-28T07:41:45.623Z,99179.94
2022-09-28T07:44:12.399Z,99182.88
2022-09-28T07:46:39.090Z,99185.34
2022-09-28T07:49:08.494Z,99189.59
2022-09-28T07:51:38.246Z,99195.72
2022-09-28T07:54:06.689Z,99197.28
2022-09-28T07:56:34.948Z,99193.53
2022-09-28T07:59:01.772Z,99201.66
2022-09-28T08:01:30.669Z,99197.00
2022-09-28T08:03:57.354Z,99194.34
2022-09-28T08:06:23.958Z,99206.88
2022-09-28T08:08:52.974Z,99208.00
2022-09-28T08:11:19.801Z,99215.72
2022-09-28T08:13:47.472Z,99204.03
2022-09-28T08:16:14.620Z,99206.63
2022-09-28T08:18:41.483Z,99205.72
2022-09-28T08:21:28.963Z,99205.16
2022-09-28T08:23:56.275Z,99213.03
2022-09-28T08:26:22.931Z,99197.88
2022-09-28T08:28:50.287Z,99205.28
2022-09-28T08:31:17.277Z,99218.44
2022-09-28T08:33:44.001Z,99216.72
2022-09-28T08:36:11.240Z,99215.78
2022-09-28T08:38:37.890Z,99208.75
2022-09-28T08:41:13.167Z,99209.66
2022-09-28T08:44:11.153Z,99199.69
2022-09-28T08:46:43.796Z,99212.13
2022-09-28T08:49:25.815Z,99205.00
2022-09-28T08:52:05.401Z,99201.13
2022-09-28T08:54:34.763Z,99215.41
2022-09-28T08:57:13.609Z,99220.53
2022-09-28T08:59:56.113Z,99220.06
2022-09-28T09:02:32.085Z,99224.72
2022-09-28T09:05:06.874Z,99238.88
2022-09-28T09:07:55.593Z,99229.84
2022-09-28T09:10:51.189Z,99216.38
2022-09-28T09:13:45.926Z,99234.16
2022-09-28T09:16:44.560Z,99233.69
2022-09-28T09:19:52.167Z,99225.63
2022-09-28T09:22:37.682Z,99240.22
2022-09-28T09:25:48.377Z,99239.09
2022-09-28T09:28:20.739Z,99241.75
2022-09-28T09:30:56.324Z,99244.59
2022-09-28T09:34:28.263Z,99253.09
2022-09-28T09:37:24.181Z,99246.69
2022-09-28T09:40:18.020Z,99250.66
2022-09-28T09:43:13.964Z,99255.81
2022-09-28T09:45:59.380Z,99254.56
2022-09-28T09:48:38.543Z,99255.94
2022-09-28T09:51:25.040Z,99262.53
2022-09-28T09:54:06.251Z,99256.78
2022-09-28T09:56:40.946Z,99256.00
2022-09-28T09:59:14.136Z,99247.72
2022-09-28T10:01:41.731Z,99255.19
2022-09-28T10:04:29.201Z,99236.00
2022-09-28T10:07:05.739Z,99224.31
2022-09-28T10:09:45.819Z,99226.38
2022-09-28T10:12:19.880Z,99237.16
2022-09-28T10:14:47.760Z,99227.13
2022-09-28T10:17:19.811Z,99223.63
2022-09-28T10:19:46.703Z,99230.16
2022-09-28T10:22:22.986Z,99227.53
2022-09-28T10:24:54.920Z,99232.94
2022-09-28T10:27:29.847Z,99234.84
2022-09-28T10:30:14.966Z,99221.81
2022-09-28T10:32:49.277Z,99218.81
2022-09-28T10:35:18.992Z,99217.69
2022-09-28T10:38:04.796Z,99220.72
2022-09-28T10:40:49.260Z,99219.47
2022-09-28T10:43:30.281Z,99236.78
2022-09-28T10:46:07.815Z,99231.28
2022-09-28T10:48:50.232Z,99234.56
2022-09-28T10:51:17.441Z,99247.88
2022-09-28T10:54:00.583Z,99248.66
2022-09-28T10:56:30.180Z,99251.72
2022-09-28T10:58:58.064Z,99250.34
2022-09-28T11:01:33.638Z,99235.47
2022-09-28T11:04:04.962Z,99234.66
2022-09-28T11:06:36.630Z,99228.53
2022-09-28T11:09:06.314Z,99237.97
2022-09-28T11:11:41.680Z,99249.25
2022-09-28T11:14:26.332Z,99239.53
2022-09-28T11:17:18.113Z,99249.31
2022-09-28T11:19:45.554Z,99244.78
2022-09-28T11:22:51.788Z,99244.19
2022-09-28T11:25:24.197Z,99236.34
2022-09-28T11:27:50.950Z,99238.31
2022-09-28T11:30:32.962Z,99234.03
2022-09-28T11:33:12.593Z,99242.34
2022-09-28T11:36:01.482Z,99239.88
2022-09-28T11:38:44.314Z,99245.34
2022-09-28T11:41:19.678Z,99240.13
2022-09-28T11:44:40.214Z,99246.22
2022-09-28T11:47:18.690Z,99238.16
2022-09-28T11:50:02.519Z,99242.97
2022-09-28T11:52:39.745Z,99239.44
2022-09-28T11:55:18.668Z,99237.50
2022-09-28T11:57:48.867Z,99245.09
2022-09-28T12:00:25.293Z,99250.19
2022-09-28T12:03:04.227Z,99243.59
2022-09-28T12:05:37.503Z,99251.66
2022-09-28T12:08:28.694Z,99247.63
2022-09-28T12:10:59.542Z,99253.06
2022-09-28T12:13:42.281Z,99254.16
2022-09-28T12:17:00.459Z,99248.63
2022-09-28T12:19:26.342Z,99242.28
2022-09-28T12:22:02.247Z,99248.94
2022-09-28T12:24:39.233Z,99240.78
2022-09-28T12:27:23.841Z,99242.75
2022-09-28T12:30:00.077Z,99256.63
2022-09-28T12:32:38.612Z,99257.50
2022-09-28T12:35:20.451Z,99253.63
2022-09-28T12:38:08.899Z,99252.59
2022-09-28T12:41:01.350Z,99253.56
2022-09-28T12:44:13.295Z,99259.91
2022-09-28T12:46:49.095Z,99262.34
2022-09-28T12:50:20.075Z,99257.72
2022-09-28T12:52:24.941Z,99252.09
2022-09-28T12:55:30.586Z,99258.81
2022-09-28T12:58:03.496Z,99251.38
2022-09-28T13:00:48.039Z,99253.66
2022-09-28T13:03:41.228Z,99251.16
2022-09-28T13:06:24.459Z,99255.72
2022-09-28T13:08:51.069Z,99256.97
2022-09-28T13:11:33.265Z,99250.38
2022-09-28T13:14:21.412Z,99251.59
2022-09-28T13:17:04.698Z,99256.53
2022-09-28T13:19:37.408Z,99254.78
2022-09-28T13:22:22.993Z,99251.09
2022-09-28T13:24:53.540Z,99235.09
2022-09-28T13:27:32.087Z,99234.25
2022-09-28T13:30:02.494Z,99244.53
2022-09-28T13:32:32.167Z,99237.84
2022-09-28T13:35:02.193Z,99236.59
2022-09-28T13:37:29.793Z,99244.09
2022-09-28T13:40:05.934Z,99244.84
2022-09-28T13:42:44.894Z,99244.00
2022-09-28T13:45:20.830Z,99244.13
2022-09-28T13:48:06.557Z,99250.31
2022-09-28T13:50:58.608Z,99248.81
2022-09-28T13:53:51.244Z,99247.81
2022-09-28T13:56:32.704Z,99242.34
2022-09-28T13:59:22.302Z,99249.47
2022-09-28T14:02:32.805Z,99241.63
2022-09-28T14:05:07.115Z,99238.81
2022-09-28T14:07:34.909Z,99238.16
2022-09-28T14:10:24.614Z,99241.56
2022-09-28T14:12:53.110Z,99236.00
2022-09-28T14:15:29.049Z,99240.25
2022-09-28T14:18:31.968Z,99235.06
2022-09-28T14:21:23.566Z,99240.97
2022-09-28T14:24:05.610Z,99244.88
2022-09-28T14:27:03.517Z,99248.56
2022-09-28T14:29:34.164Z,99240.88
2022-09-28T14:32:09.586Z,99244.81
2022-09-28T14:34:40.837Z,99250.69
2022-09-28T14:37:58.254Z,99255.25
2022-09-28T14:40:49.952Z,99255.66
2022-09-28T14:43:25.441Z,99255.03
2022-09-28T14:46:13.165Z,99250.41
2022-09-28T14:48:58.105Z,99239.31
2022-09-28T14:51:24.779Z,99252.66
2022-09-28T14:54:00.388Z,99239.47
2022-09-28T14:56:34.156Z,99251.09
2022-09-28T14:59:01.227Z,99261.63
2022-09-28T15:01:28.215Z,99259.09
2022-09-28T15:03:58.113Z,99267.03
2022-09-28T15:06:26.954Z,99257.78
2022-09-28T15:08:53.722Z,99244.47
2022-09-28T15:11:30.293Z,99252.16
2022-09-28T15:14:08.383Z,99260.84
2022-09-28T15:16:35.269Z,99257.34
2022-09-28T15:19:11.003Z,99261.41
2022-09-28T15:21:41.145Z,99268.38
2022-09-28T15:24:31.669Z,99270.25
2022-09-28T15:26:59.855Z,99255.00
2022-09-28T15:29:31.209Z,99260.59
2022-09-28T15:31:59.011Z,99264.19
2022-09-28T15:34:51.365Z,99263.88
2022-09-28T15:37:29.142Z,99258.84
2022-09-28T15:39:58.237Z,99261.16
2022-09-28T15:42:25.127Z,99270.84
2022-09-28T15:45:01.291Z,99271.59
2022-09-28T15:47:30.155Z,99273.72
2022-09-28T15:50:06.637Z,99275.41
2022-09-28T15:52:36.559Z,99288.75
2022-09-28T15:55:16.127Z,99283.28
2022-09-28T15:57:44.171Z,99291.22
2022-09-28T16:00:28.742Z,99285.25
2022-09-28T16:03:08.816Z,99286.88
2022-09-28T16:05:41.149Z,99296.16
2022-09-28T16:08:22.165Z,99291.41
2022-09-28T16:11:12.219Z,99298.66
2022-09-28T16:14:06.452Z,99293.31
2022-09-28T16:16:42.181Z,99307.94
2022-09-28T16:19:24.649Z,99309.88
2022-09-28T16:21:53.399Z,99305.56
2022-09-28T16:24:24.331Z,99311.69
2022-09-28T16:27:26.780Z,99311.59
2022-09-28T16:30:12.328Z,99316.72
2022-09-28T16:32:48.099Z,99311.44
2022-09-28T16:35:18.949Z,99326.84
2022-09-28T16:37:48.851Z,99318.50
2022-09-28T16:40:15.747Z,99318.72
2022-09-28T16:42:49.172Z,99328.78
2022-09-28T16:45:21.916Z,99324.25
2022-09-28T16:47:52.926Z,99323.22
2022-09-28T16:50:21.434Z,99324.25
2022-09-28T16:53:15.038Z,99328.22
2022-09-28T16:55:41.896Z,99338.28
2022-09-28T16:58:08.627Z,99330.09
2022-09-28T17:00:35.710Z,99331.28
2022-09-28T17:03:05.705Z,99330.91
2022-09-28T17:05:32.448Z,99332.31
2022-09-28T17:08:04.896Z,99344.22
2022-09-28T17:11:15.730Z,99346.00
2022-09-28T17:13:42.259Z,99351.75
2022-09-28T17:16:15.205Z,99348.34
2022-09-28T17:18:42.274Z,99356.56
2022-09-28T17:21:20.713Z,99354.91
2022-09-28T17:23:49.461Z,99354.06
2022-09-28T17:26:27.403Z,99362.25
2022-09-28T17:28:54.203Z,99366.38
2022-09-28T17:31:20.990Z,99357.75
2022-09-28T17:33:48.235Z,99361.47
2022-09-28T17:36:17.627Z,99365.56
2022-09-28T17:38:45.623Z,99373.34
2022-09-28T17:41:20.463Z,99362.16
2022-09-28T17:43:47.856Z,99379.41
2022-09-28T17:46:28.752Z,99375.91
2022-09-28T17:48:59.541Z,99388.03
2022-09-28T17:51:32.419Z,99376.56
2022-09-28T17:54:01.109Z,99373.88
2022-09-28T17:56:32.146Z,99382.91
2022-09-28T17:59:03.173Z,99376.75
2022-09-28T18:01:34.336Z,99383.09
2022-09-28T18:04:03.794Z,99375.31
2022-09-28T18:06:32.622Z,99384.34
2022-09-28T18:09:01.907Z,99377.69
2022-09-28T18:11:29.952Z,99391.06
2022-09-28T18:13:58.063Z,99387.91
2022-09-28T18:16:26.179Z,99390.09
2022-09-28T18:18:52.966Z,99393.91
2022-09-28T18:21:19.927Z,99380.69
2022-09-28T18:23:47.451Z,99393.00
2022-09-28T18:26:15.588Z,99403.13
2022-09-28T18:28:42.569Z,99400.84
2022-09-28T18:31:11.294Z,99390.78
2022-09-28T18:33:38.804Z,99410.88
2022-09-28T18:36:07.270Z,99397.31
2022-09-28T18:38:38.163Z,99409.59
2022-09-28T18:41:16.874Z,99405.28
2022-09-28T18:43:52.011Z,99409.09
2022-09-28T18:46:19.276Z,99412.75
2022-09-28T18:48:47.467Z,99422.59
2022-09-28T18:51:14.744Z,99417.69
2022-09-28T18:53:41.728Z,99414.94
2022-09-28T18:56:10.883Z,99437.25
2022-09-28T18:58:39.191Z,99440.72
2022-09-28T19:01:29.456Z,99440.53
2022-09-28T19:04:02.230Z,99444.13
2022-09-28T19:06:30.014Z,99439.00
2022-09-28T19:08:57.025Z,99448.38
2022-09-28T19:11:25.224Z,99439.88
2022-09-28T19:13:54.019Z,99437.41
2022-09-28T19:16:23.187Z,99436.34
2022-09-28T19:18:52.454Z,99442.94
2022-09-28T19:21:19.558Z,99441.69
2022-09-28T19:23:49.270Z,99441.59
2022-09-28T19:26:20.505Z,99443.16
2022-09-28T19:28:48.617Z,99450.78
2022-09-28T19:31:16.058Z,99447.50
2022-09-28T19:33:46.648Z,99435.94
2022-09-28T19:36:17.809Z,99444.66
2022-09-28T19:38:45.359Z,99431.91
2022-09-28T19:41:43.101Z,99440.72
2022-09-28T19:44:27.598Z,99440.63
2022-09-28T19:47:07.166Z,99429.44
2022-09-28T19:49:37.194Z,99449.50
2022-09-28T19:52:13.414Z,99450.31
2022-09-28T19:54:45.802Z,99458.84
2022-09-28T19:57:16.246Z,99455.09
2022-09-28T19:59:43.207Z,99473.06
2022-09-28T20:02:11.033Z,99468.25
2022-09-28T20:04:37.970Z,99466.66
2022-09-28T20:07:05.310Z,99472.81
2022-09-28T20:09:32.710Z,99477.84
2022-09-28T20:11:59.486Z,99477.09
2022-09-28T20:14:31.801Z,99482.75
2022-09-28T20:17:01.031Z,99489.56
2022-09-28T20:19:27.814Z,99498.69
2022-09-28T20:21:59.888Z,99490.72
2022-09-28T20:24:28.985Z,99485.47
2022-09-28T20:26:55.978Z,99491.16
2022-09-28T20:29:24.361Z,99492.34
2022-09-28T20:31:51.958Z,99497.34
2022-09-28T20:34:18.992Z,99494.09
2022-09-28T20:36:45.660Z,99497.09
2022-09-28T20:39:13.152Z,99497.47
2022-09-28T20:41:40.474Z,99502.47
2022-09-28T20:44:07.603Z,99505.97
2022-09-28T20:46:35.440Z,99508.47
2022-09-28T20:49:02.558Z,99508.19
2022-09-28T20:51:29.405Z,99515.19
2022-09-28T20:53:57.998Z,99515.56
2022-09-28T20:56:37.765Z,99506.78
2022-09-28T20:59:07.961Z,99512.28
2022-09-28T21:01:35.117Z,99506.38
2022-09-28T21:04:04.253Z,99517.44
2022-09-28T21:06:34.288Z,99527.06
2022-09-28T21:09:01.509Z,99527.25
2022-09-28T21:11:29.764Z,99524.47
2022-09-28T21:14:01.812Z,99528.09
2022-09-28T21:16:30.440Z,99527.78
2022-09-28T21:18:57.852Z,99525.81
2022-09-28T21:21:26.264Z,99524.66
2022-09-28T21:23:56.627Z,99525.16
2022-09-28T21:26:25.680Z,99535.59
2022-09-28T21:28:58.013Z,99529.00
2022-09-28T21:31:29.145Z,99537.13
2022-09-28T21:33:57.281Z,99537.94
2022-09-28T21:36:24.078Z,99541.13
2022-09-28T21:38:51.009Z,99537.66
2022-09-28T21:41:17.936Z,99541.28
2022-09-28T21:43:45.804Z,99554.72
2022-09-28T21:46:12.556Z,99546.47
2022-09-28T21:48:39.923Z,99542.31
2022-09-28T21:51:09.245Z,99552.75
2022-09-28T21:53:37.849Z,99547.81
2022-09-28T21:56:06.972Z,99550.78
2022-09-28T21:58:35.667Z,99557.25
2022-09-28T22:01:09.053Z,99544.84
2022-09-28T22:03:36.707Z,99553.78
2022-09-28T22:06:04.787Z,99556.13
2022-09-28T22:08:32.338Z,99559.59
2022-09-28T22:11:10.611Z,99574.50
2022-09-28T22:13:41.676Z,99569.34
2022-09-28T22:16:09.205Z,99579.44
2022-09-28T22:18:36.324Z,99574.63
2022-09-28T22:21:11.926Z,99575.28
2022-09-28T22:23:39.925Z,99576.28
2022-09-28T22:26:11.190Z,99553.81
2022-09-28T22:28:42.422Z,99575.16
2022-09-28T22:31:09.243Z,99573.84
2022-09-28T22:33:36.092Z,99576.47
2022-09-28T22:36:04.287Z,99577.16
2022-09-28T22:38:32.230Z,99576.63
2022-09-28T22:40:59.162Z,99578.94
2022-09-28T22:43:26.817Z,99575.97
2022-09-28T22:46:05.331Z,99579.94
2022-09-28T22:48:32.877Z,99598.47
2022-09-28T22:50:59.774Z,99593.69
2022-09-28T22:53:28.456Z,99592.84
2022-09-28T22:55:56.909Z,99597.50
2022-09-28T22:58:23.840Z,99593.50
2022-09-28T23:00:50.634Z,99586.06
2022-09-28T23:03:18.037Z,99585.56
2022-09-28T23:05:55.867Z,99585.06
2022-09-28T23:08:23.697Z,99570.34
2022-09-28T23:10:51.514Z,99599.78
2022-09-28T23:13:18.741Z,99589.53
2022-09-28T23:15:56.128Z,99589.53
2022-09-28T23:18:23.801Z,99584.56
2022-09-28T23:20:57.860Z,99595.16
2022-09-28T23:23:24.814Z,99581.44
2022-09-28T23:25:52.772Z,99584.25
2022-09-28T23:28:21.239Z,99588.22
2022-09-28T23:30:48.311Z,99584.22
2022-09-28T23:33:16.812Z,99563.88
2022-09-28T23:35:44.155Z,99597.13
2022-09-28T23:38:13.603Z,99602.06
2022-09-28T23:40:41.522Z,99590.81
2022-09-28T23:43:08.663Z,99601.09
2022-09-28T23:45:35.388Z,99587.34
2022-09-28T23:48:02.593Z,99594.97
2022-09-28T23:50:29.580Z,99595.28
2022-09-28T23:52:56.642Z,99601.25
2022-09-28T23:55:23.391Z,99592.47
2022-09-28T23:57:51.010Z,99578.59
